Hokah, Minnesota
Current Conditions -  °F | °C
As of 9:53 PM on Saturday 20 Dec 2014 (Local Time) from KLSE Reporting Station
Haze Haze  
Wind Chill: 27°   Ceiling: 1300
Heat Index: 33°   Visibility: 6mi
Dew Point: 28°   Wind: 7mph
Humidity: 82%   Direction: 160°SSE
Pressure: 30.16"   Gusts: NA
Location:  43.76°N, 91.35°W
Report Text: KLSE 210353Z AUTO 16006KT 6SM HZ OVC013 01/M02 A3016 RMK AO2 SNB32E41 SLP226 P0000 T00061022
Loading
Personal Weather Stations






























Interactive Weather Map New forecast layout! Learn more

10-Day Weather Forecast

Advertisements
Track Severe Weather on mobile